Time;durP1;ratioP1;P1;durP2;ratioP2;P2;SDS_P1;SDS_P2;PMS_P1;PMS_P2;Temp;Humidity;BMP_temperature;BMP_pressure;BME280_temperature;BME280_humidity;BME280_pressure;Samples;Min_cycle;Max_cycle;Signal;HPM_P1;HPM_P2
2022/10/22 00:01:39;;;;;;;64.40;32.00;;;;;;;12.41;100.00;100338.31;4960753;28;20035;-76
2022/10/22 00:04:05;;;;;;;77.87;35.47;;;;;;;12.44;100.00;100353.97;4974225;28;20121;-76
2022/10/22 00:06:30;;;;;;;68.10;32.67;;;;;;;12.44;100.00;100351.31;4973171;28;20057;-76
2022/10/22 00:08:56;;;;;;;64.13;31.90;;;;;;;12.42;100.00;100355.19;4961249;28;20093;-76
2022/10/22 00:11:21;;;;;;;61.27;31.63;;;;;;;12.42;100.00;100352.50;4959981;28;20044;-76
2022/10/22 00:13:47;;;;;;;69.23;32.73;;;;;;;12.46;100.00;100357.31;4973431;28;20089;-76
2022/10/22 00:16:12;;;;;;;73.07;33.65;;;;;;;12.48;100.00;100353.59;4973983;28;20574;-76
2022/10/22 00:18:38;;;;;;;82.00;36.40;;;;;;;12.44;100.00;100347.81;4972127;28;20038;-76
2022/10/22 00:21:04;;;;;;;89.30;36.57;;;;;;;12.51;100.00;100364.78;4956470;28;20512;-75
2022/10/22 00:23:30;;;;;;;61.78;32.10;;;;;;;12.55;100.00;100360.75;4973045;28;20318;-77
2022/10/22 00:25:55;;;;;;;78.03;33.60;;;;;;;12.56;100.00;100351.69;4972131;28;20125;-76
2022/10/22 00:28:21;;;;;;;80.60;35.63;;;;;;;12.54;100.00;100353.72;4940835;28;20285;-76
2022/10/22 00:30:46;;;;;;;75.72;34.40;;;;;;;12.54;100.00;100344.84;4971872;28;20035;-77
2022/10/22 00:33:12;;;;;;;89.70;38.13;;;;;;;12.56;100.00;100351.69;4957407;28;20145;-77
2022/10/22 00:35:37;;;;;;;81.63;35.90;;;;;;;12.57;100.00;100358.72;4938167;28;20034;-77
2022/10/22 00:38:03;;;;;;;84.33;37.70;;;;;;;12.54;100.00;100343.00;4955660;28;20045;-76
2022/10/22 00:40:28;;;;;;;76.80;35.03;;;;;;;12.56;100.00;100340.97;4972858;28;20193;-75
2022/10/22 00:42:54;;;;;;;84.40;35.17;;;;;;;12.61;100.00;100345.78;4944228;28;20035;-76
2022/10/22 00:45:24;;;;;;;71.32;35.08;;;;;;;12.63;100.00;100349.91;4974056;28;20041;-76
2022/10/22 00:48:00;;;;;;;75.40;34.05;;;;;;;12.62;100.00;100350.94;4971491;28;20069;-76
2022/10/22 00:50:31;;;;;;;;;;;;;;;12.62;100.00;100353.63;4948454;28;20038;-77
2022/10/22 00:52:59;;;;;;;70.60;33.17;;;;;;;12.61;100.00;100353.81;4957828;28;19914;-76
2022/10/22 00:55:26;;;;;;;78.35;34.72;;;;;;;12.63;100.00;100351.78;4955571;28;20014;-76
2022/10/22 00:57:54;;;;;;;81.43;36.72;;;;;;;12.62;100.00;100355.47;4971536;28;20032;-76
2022/10/22 01:00:20;;;;;;;79.45;36.20;;;;;;;12.60;100.00;100352.97;4974072;28;20454;-76
2022/10/22 01:02:48;;;;;;;75.47;34.28;;;;;;;12.61;100.00;100353.81;4943396;28;20249;-76
2022/10/22 01:05:14;;;;;;;93.25;38.38;;;;;;;12.59;100.00;100359.34;4973944;28;20369;-76
2022/10/22 01:07:49;;;;;;;81.38;34.60;;;;;;;12.59;100.00;100353.16;4940465;28;20050;-77
2022/10/22 01:10:37;;;;;;;73.28;34.17;;;;;;;12.58;100.00;100357.69;4945555;28;20065;-77
2022/10/22 01:13:24;;;;;;;72.35;34.83;;;;;;;12.62;100.00;100352.81;4970616;28;20027;-77
2022/10/22 01:16:12;;;;;;;71.55;33.35;;;;;;;12.57;100.00;100348.00;4971586;28;20547;-77
2022/10/22 01:18:46;;;;;;;67.93;32.08;;;;;;;12.51;100.00;100346.06;4971544;28;20411;-77
2022/10/22 01:21:21;;;;;;;69.45;31.55;;;;;;;12.49;100.00;100350.75;4958006;28;20041;-77
2022/10/22 01:24:08;;;;;;;66.10;29.60;;;;;;;12.48;100.00;100349.09;4973774;28;20085;-76
2022/10/22 01:26:52;;;;;;;92.43;35.55;;;;;;;12.47;100.00;100347.44;4962535;28;20307;-77
2022/10/22 01:29:24;;;;;;;80.82;36.17;;;;;;;12.51;100.00;100348.72;4972555;28;20173;-77
2022/10/22 01:32:06;;;;;;;78.18;35.70;;;;;;;12.50;100.00;100349.72;4972795;28;20041;-78
2022/10/22 01:34:33;;;;;;;76.75;34.45;;;;;;;12.55;100.00;100357.22;4978953;28;20484;-77
2022/10/22 01:36:59;;;;;;;80.38;33.95;;;;;;;12.58;100.00;100360.38;4972405;28;20090;-77
2022/10/22 01:39:27;;;;;;;76.85;33.85;;;;;;;12.52;100.00;100361.09;4974873;28;20098;-77
2022/10/22 01:41:57;;;;;;;77.88;35.03;;;;;;;12.56;100.00;100373.09;4972439;28;20034;-77
2022/10/22 01:44:28;;;;;;;83.45;35.35;;;;;;;12.57;100.00;100376.59;4973828;28;20581;-77
2022/10/22 01:47:19;;;;;;;76.10;34.67;;;;;;;12.62;100.00;100380.41;4944497;28;20038;-77
2022/10/22 01:50:03;;;;;;;72.47;34.17;;;;;;;12.62;100.00;100387.63;4973699;28;20086;-77
2022/10/22 01:52:55;;;;;;;73.25;34.03;;;;;;;12.55;100.00;100376.81;4952658;28;20055;-76
2022/10/22 01:55:29;;;;;;;82.07;35.88;;;;;;;12.58;100.00;100381.78;4959046;28;20468;-76
2022/10/22 01:58:21;;;;;;;79.07;36.38;;;;;;;12.58;100.00;100381.78;4975104;28;20049;-77
2022/10/22 02:00:58;;;;;;;76.80;35.83;;;;;;;12.60;100.00;100381.59;4974892;28;20416;-77
2022/10/22 02:03:31;;;;;;;77.65;35.63;;;;;;;12.58;100.00;100371.06;4979733;28;20038;-76
2022/10/22 02:06:02;;;;;;;78.80;35.70;;;;;;;12.58;100.00;100371.06;4973060;28;20077;-77
2022/10/22 02:08:31;;;;;;;74.63;34.38;;;;;;;12.61;100.00;100381.41;4976947;28;20038;-76
2022/10/22 02:10:58;;;;;;;79.97;32.97;;;;;;;12.60;100.00;100376.25;4961755;28;20026;-77
2022/10/22 02:13:30;;;;;;;89.75;37.05;;;;;;;12.58;100.00;100389.81;4959934;28;20038;-76
2022/10/22 02:15:57;;;;;;;83.25;36.33;;;;;;;12.57;100.00;100385.50;4947352;28;20105;-77
2022/10/22 02:18:28;;;;;;;74.85;34.38;;;;;;;12.55;100.00;100374.13;4962218;28;20054;-76
2022/10/22 02:20:54;;;;;;;78.95;36.03;;;;;;;12.61;100.00;100393.97;4975635;28;20366;-77
2022/10/22 02:23:21;;;;;;;82.50;34.60;;;;;;;12.62;100.00;100388.44;4960044;28;20034;-76
2022/10/22 02:25:50;;;;;;;71.93;33.83;;;;;;;12.60;100.00;100385.13;4963041;28;20035;-76
2022/10/22 02:28:35;;;;;;;80.25;35.40;;;;;;;12.59;100.00;100391.47;4950483;28;20416;-77
2022/10/22 02:31:15;;;;;;;74.80;33.77;;;;;;;12.56;100.00;100381.13;4974117;28;20039;-77
2022/10/22 02:33:46;;;;;;;67.30;30.13;;;;;;;12.52;100.00;100374.47;4973195;28;20381;-77
2022/10/22 02:36:12;;;;;;;78.15;32.47;;;;;;;12.48;100.00;100370.53;4960078;28;20041;-77
2022/10/22 02:38:39;;;;;;;;;;;;;;;12.54;100.00;100372.44;4978571;28;20529;-77
2022/10/22 02:41:04;;;;;;;65.70;32.50;;;;;;;12.58;100.00;100368.41;4976915;28;20617;-77
2022/10/22 02:43:30;;;;;;;64.43;30.98;;;;;;;12.53;100.00;100362.78;4958920;28;20109;-77
2022/10/22 02:45:55;;;;;;;72.63;31.70;;;;;;;12.56;100.00;100367.75;4974025;28;20066;-76
2022/10/22 02:48:20;;;;;;;75.30;34.03;;;;;;;12.57;100.00;100366.75;4959928;28;20053;-77
2022/10/22 02:50:46;;;;;;;86.57;35.63;;;;;;;12.55;100.00;100368.78;4974865;28;20089;-77
2022/10/22 02:53:11;;;;;;;65.27;31.20;;;;;;;12.49;100.00;100372.19;4977431;28;20142;-77
2022/10/22 02:55:36;;;;;;;64.80;30.47;;;;;;;12.55;100.00;100370.59;4957485;28;20407;-77
2022/10/22 02:58:02;;;;;;;71.67;29.93;;;;;;;12.54;100.00;100372.44;4976095;28;20053;-76
2022/10/22 03:00:27;;;;;;;72.80;31.43;;;;;;;12.50;100.00;100373.00;4975686;28;20038;-77
2022/10/22 03:02:53;;;;;;;68.33;29.67;;;;;;;12.48;100.00;100373.22;4946801;28;20088;-76
2022/10/22 03:05:18;;;;;;;115.63;38.97;;;;;;;12.49;100.00;100379.38;4936104;28;20034;-75
2022/10/22 03:07:43;;;;;;;85.80;33.77;;;;;;;12.48;100.00;100375.88;4961118;28;20096;-76
2022/10/22 03:10:09;;;;;;;88.97;33.10;;;;;;;12.46;100.00;100373.38;4959530;28;20039;-77
2022/10/22 03:12:34;;;;;;;101.53;35.10;;;;;;;12.46;100.00;100372.56;4957499;28;20041;-77
2022/10/22 03:14:59;;;;;;;63.10;29.77;;;;;;;12.43;100.00;100371.06;4975170;28;20027;-77
2022/10/22 03:17:25;;;;;;;76.33;28.80;;;;;;;12.39;100.00;100372.44;4958600;28;20100;-77
2022/10/22 03:19:50;;;;;;;65.17;29.23;;;;;;;12.40;100.00;100381.31;4974203;28;20185;-76
2022/10/22 03:22:22;;;;;;;52.13;25.93;;;;;;;12.42;100.00;100384.63;4977537;28;20499;-77
2022/10/22 03:24:51;;;;;;;64.03;28.10;;;;;;;12.44;100.00;100386.13;4974061;28;20039;-77
2022/10/22 03:27:20;;;;;;;90.07;33.58;;;;;;;12.33;100.00;100380.38;4974284;28;20527;-77
2022/10/22 03:29:48;;;;;;;64.38;28.02;;;;;;;12.43;100.00;100395.19;4976810;28;20476;-77
2022/10/22 03:32:13;;;;;;;97.00;33.47;;;;;;;12.42;100.00;100396.16;4977334;28;20038;-76
2022/10/22 03:34:38;;;;;;;61.43;30.23;;;;;;;12.34;100.00;100393.59;4975503;28;20045;-76
2022/10/22 03:37:04;;;;;;;68.07;29.90;;;;;;;12.44;100.00;100412.88;4957670;28;20129;-76
2022/10/22 03:39:32;;;;;;;75.93;33.08;;;;;;;12.43;100.00;100410.38;4973944;28;20034;-76
2022/10/22 03:41:58;;;;;;;76.20;30.65;;;;;;;12.42;100.00;100420.28;4971250;28;20098;-76
2022/10/22 03:44:24;;;;;;;72.43;30.85;;;;;;;12.39;100.00;100430.53;4959575;28;20089;-76
2022/10/22 03:46:49;;;;;;;68.20;30.83;;;;;;;12.34;100.00;100425.72;4972626;28;20031;-76
2022/10/22 03:49:14;;;;;;;77.82;32.90;;;;;;;12.28;100.00;100413.03;4976192;28;20065;-76
2022/10/22 03:51:40;;;;;;;55.20;25.63;;;;;;;12.21;100.00;100407.59;4945448;28;20038;-76
2022/10/22 03:54:05;;;;;;;65.80;29.77;;;;;;;12.20;100.00;100419.31;4975255;28;20018;-75
2022/10/22 03:56:31;;;;;;;66.23;31.67;;;;;;;12.22;100.00;100422.66;4960563;28;20515;-76
2022/10/22 03:58:58;;;;;;;62.03;29.13;;;;;;;12.18;100.00;100424.00;4946143;28;20248;-76
2022/10/22 04:01:24;;;;;;;60.15;28.95;;;;;;;12.11;100.00;100432.94;4941385;28;20472;-76
2022/10/22 04:03:49;;;;;;;67.45;32.03;;;;;;;12.04;100.00;100427.47;4973246;28;20053;-76
2022/10/22 04:06:15;;;;;;;85.63;35.87;;;;;;;12.15;100.00;100439.59;4960318;28;20476;-75
2022/10/22 04:08:42;;;;;;;93.45;36.97;;;;;;;12.15;100.00;100445.78;4972752;28;20035;-76
2022/10/22 04:11:09;;;;;;;75.93;33.50;;;;;;;12.16;100.00;100447.44;4973946;28;20035;-75
2022/10/22 04:13:34;;;;;;;97.68;38.75;;;;;;;12.10;100.00;100442.78;4955836;28;20050;-76
2022/10/22 04:16:16;;;;;;;81.82;35.00;;;;;;;12.07;100.00;100443.16;4945991;28;20412;-76
2022/10/22 04:18:42;;;;;;;91.18;35.10;;;;;;;12.07;100.00;100447.69;4958967;28;20058;-76
2022/10/22 04:21:08;;;;;;;;;;;;;;;12.06;100.00;100446.00;4973930;28;20039;-76
2022/10/22 04:23:33;;;;;;;87.07;36.50;;;;;;;12.04;100.00;100443.53;4974530;28;20388;-76
2022/10/22 04:26:01;;;;;;;81.50;35.53;;;;;;;12.01;100.00;100449.22;4955623;28;20030;-76
2022/10/22 04:28:27;;;;;;;82.18;33.85;;;;;;;11.91;100.00;100446.78;4940137;28;20037;-76
2022/10/22 04:30:52;;;;;;;90.20;34.90;;;;;;;11.74;100.00;100443.38;4970851;28;20031;-76
2022/10/22 04:33:17;;;;;;;81.73;33.47;;;;;;;11.75;100.00;100452.22;4957387;28;20301;-76
2022/10/22 04:35:43;;;;;;;81.37;36.23;;;;;;;11.81;100.00;100459.56;4962556;28;20046;-76
2022/10/22 04:38:08;;;;;;;94.77;38.77;;;;;;;11.86;100.00;100461.69;4973639;28;20117;-76
2022/10/22 04:40:33;;;;;;;95.97;39.53;;;;;;;11.92;100.00;100472.56;4957542;28;20090;-76
2022/10/22 04:42:59;;;;;;;128.87;45.30;;;;;;;11.97;100.00;100466.66;4974047;28;20404;-76
2022/10/22 04:45:24;;;;;;;138.30;48.83;;;;;;;12.15;100.00;100487.75;4940040;28;20034;-76
2022/10/22 04:47:49;;;;;;;116.53;41.43;;;;;;;12.17;100.00;100488.41;4960120;28;20114;-76
2022/10/22 04:50:15;;;;;;;183.40;52.23;;;;;;;12.28;100.00;100501.38;4957584;28;20026;-75
2022/10/22 04:52:40;;;;;;;145.07;47.93;;;;;;;12.27;100.00;100501.53;4971649;28;20400;-76
2022/10/22 04:55:06;;;;;;;133.97;45.97;;;;;;;12.25;100.00;100489.19;4973208;28;20352;-76
2022/10/22 04:57:31;;;;;;;195.07;55.55;;;;;;;12.38;100.00;100514.50;4952313;28;20109;-76
2022/10/22 04:59:57;;;;;;;167.97;52.33;;;;;;;12.41;100.00;100511.50;4972614;28;20519;-75
2022/10/22 05:02:22;;;;;;;318.73;66.07;;;;;;;12.45;100.00;100518.13;4974071;28;20042;-76
2022/10/22 05:04:47;;;;;;;183.83;55.50;;;;;;;12.42;100.00;100516.66;4972182;28;20043;-76
2022/10/22 05:07:13;;;;;;;318.83;62.73;;;;;;;12.42;100.00;100521.19;4954451;28;20035;-76
2022/10/22 05:09:39;;;;;;;389.95;67.40;;;;;;;12.38;100.00;100515.34;4958955;28;20031;-76
2022/10/22 05:12:05;;;;;;;403.80;67.53;;;;;;;12.35;100.00;100514.88;4956218;28;20047;-76
2022/10/22 05:14:31;;;;;;;399.90;69.13;;;;;;;12.41;100.00;100530.22;4944204;28;20030;-76
2022/10/22 05:16:56;;;;;;;175.05;56.88;;;;;;;12.41;100.00;100519.53;4969322;28;20511;-76
2022/10/22 05:19:28;;;;;;;180.13;58.45;;;;;;;12.43;100.00;100522.84;4952143;28;20042;-76
2022/10/22 05:21:57;;;;;;;403.50;70.75;;;;;;;12.36;100.00;100528.09;4938920;28;20038;-76
2022/10/22 05:24:24;;;;;;;263.73;59.45;;;;;;;12.38;100.00;100538.59;4960024;28;20034;-76
2022/10/22 05:26:51;;;;;;;190.02;54.88;;;;;;;12.42;100.00;100537.25;4974991;28;20034;-75
2022/10/22 05:29:17;;;;;;;199.15;61.50;;;;;;;12.38;100.00;100531.41;4978186;28;20042;-76
2022/10/22 05:31:43;;;;;;;463.75;78.95;;;;;;;12.33;100.00;100523.09;4978135;28;20543;-76
2022/10/22 05:34:08;;;;;;;457.75;83.75;;;;;;;12.39;100.00;100541.13;4960556;28;20074;-76
2022/10/22 05:36:34;;;;;;;222.87;61.37;;;;;;;12.42;100.00;100547.94;4975763;28;20077;-76
2022/10/22 05:38:59;;;;;;;143.63;49.33;;;;;;;12.31;100.00;100532.31;4976452;28;20103;-75
2022/10/22 05:41:26;;;;;;;196.52;59.00;;;;;;;12.36;100.00;100548.66;4976484;28;20038;-76
2022/10/22 05:43:57;;;;;;;190.27;53.35;;;;;;;12.29;100.00;100537.84;4975391;28;20030;-76
2022/10/22 05:46:25;;;;;;;452.30;76.20;;;;;;;12.34;100.00;100553.34;4956920;28;20022;-76
2022/10/22 05:48:55;;;;;;;397.65;69.95;;;;;;;12.34;100.00;100542.66;4950195;28;20062;-76
2022/10/22 05:51:21;;;;;;;244.80;60.20;;;;;;;12.36;100.00;100544.16;4960345;28;20038;-76
2022/10/22 05:53:51;;;;;;;175.55;55.10;;;;;;;12.39;100.00;100542.97;4975607;28;20038;-76
2022/10/22 05:56:16;;;;;;;228.63;59.25;;;;;;;12.38;100.00;100543.97;4965945;28;20476;-76
2022/10/22 05:58:43;;;;;;;186.33;56.03;;;;;;;12.40;100.00;100555.31;4975474;28;20041;-76
2022/10/22 06:01:21;;;;;;;234.20;62.97;;;;;;;12.40;100.00;100560.69;4960248;28;20289;-76
2022/10/22 06:03:47;;;;;;;267.35;64.60;;;;;;;12.37;100.00;100555.69;4973615;28;20039;-76
2022/10/22 06:06:20;;;;;;;200.40;57.28;;;;;;;12.38;100.00;100563.53;4978033;28;20038;-76
2022/10/22 06:08:48;;;;;;;181.18;52.75;;;;;;;12.41;100.00;100570.41;4959036;28;20527;-76
2022/10/22 06:11:16;;;;;;;181.20;51.97;;;;;;;12.39;100.00;100575.91;4960797;28;20032;-76
2022/10/22 06:13:43;;;;;;;308.70;67.45;;;;;;;12.44;100.00;100584.25;4975113;28;20098;-76
2022/10/22 06:16:08;;;;;;;502.83;76.57;;;;;;;12.40;100.00;100585.59;4959112;28;20039;-76
2022/10/22 06:18:34;;;;;;;336.37;62.00;;;;;;;12.43;100.00;100598.66;4954798;28;20038;-76
2022/10/22 06:21:07;;;;;;;517.07;71.63;;;;;;;12.31;100.00;100577.81;4976194;28;20030;-76
2022/10/22 06:23:33;;;;;;;452.17;66.55;;;;;;;12.23;100.00;100586.75;4957983;28;20038;-76
2022/10/22 06:25:59;;;;;;;651.97;78.40;;;;;;;12.24;100.00;100594.59;4975396;28;20030;-76
2022/10/22 06:28:26;;;;;;;470.73;67.32;;;;;;;12.23;100.00;100606.31;4958751;28;20038;-76
2022/10/22 06:30:52;;;;;;;310.73;60.58;;;;;;;12.24;100.00;100607.13;4963184;28;20039;-76
2022/10/22 06:33:17;;;;;;;217.43;50.20;;;;;;;12.23;100.00;100619.69;4941724;28;20503;-77
2022/10/22 06:35:44;;;;;;;266.33;54.87;;;;;;;12.15;100.00;100601.00;4974504;28;20027;-76
2022/10/22 06:38:09;;;;;;;206.68;50.63;;;;;;;12.23;100.00;100626.88;4959958;28;20031;-77
2022/10/22 06:40:35;;;;;;;480.88;64.93;;;;;;;12.11;100.00;100615.75;4957992;28;20633;-78
2022/10/22 06:43:00;;;;;;;197.13;50.67;;;;;;;12.14;100.00;100633.28;4950581;28;20050;-77
2022/10/22 06:45:26;;;;;;;246.90;53.58;;;;;;;12.10;100.00;100640.81;4964953;28;20046;-77
2022/10/22 06:47:52;;;;;;;228.83;50.50;;;;;;;12.16;100.00;100645.47;4958242;28;20027;-77
2022/10/22 06:50:18;;;;;;;272.17;51.53;;;;;;;12.16;100.00;100650.84;4974898;28;20579;-76
2022/10/22 06:52:43;;;;;;;224.80;51.40;;;;;;;12.13;100.00;100656.53;4974906;28;20046;-76
2022/10/22 06:55:09;;;;;;;276.80;52.63;;;;;;;12.06;100.00;100642.19;4959665;28;20060;-76
2022/10/22 06:57:34;;;;;;;241.82;53.35;;;;;;;12.10;100.00;100646.16;4975410;28;20041;-77
2022/10/22 07:00:00;;;;;;;347.63;58.27;;;;;;;12.08;100.00;100650.91;4958241;28;20023;-76
2022/10/22 07:02:25;;;;;;;412.70;67.87;;;;;;;12.13;100.00;100656.53;4958856;28;20037;-77
2022/10/22 07:04:50;;;;;;;289.23;57.60;;;;;;;12.15;100.00;100659.88;4949124;28;20500;-77
2022/10/22 07:07:16;;;;;;;255.70;55.70;;;;;;;12.06;100.00;100665.44;4959975;28;20034;-76
2022/10/22 07:09:44;;;;;;;216.67;48.63;;;;;;;12.01;100.00;100661.44;4946669;28;20034;-76
2022/10/22 07:12:10;;;;;;;295.10;53.55;;;;;;;11.97;100.00;100659.31;4959940;28;20065;-76
2022/10/22 07:14:35;;;;;;;243.40;52.63;;;;;;;12.03;100.00;100672.81;4975220;28;20034;-77
2022/10/22 07:17:01;;;;;;;247.27;56.73;;;;;;;12.08;100.00;100680.34;4975954;28;20031;-77
2022/10/22 07:19:26;;;;;;;266.17;56.53;;;;;;;12.11;100.00;100679.16;4956486;28;20105;-78
2022/10/22 07:21:51;;;;;;;365.00;62.93;;;;;;;12.15;100.00;100683.97;4950029;28;20656;-78
2022/10/22 07:24:17;;;;;;;278.60;59.47;;;;;;;12.08;100.00;100685.69;4959569;28;20231;-77
2022/10/22 07:26:42;;;;;;;194.50;47.80;;;;;;;12.08;100.00;100691.03;4962157;28;20031;-76
2022/10/22 07:29:08;;;;;;;149.13;47.00;;;;;;;12.11;100.00;100698.72;4959749;28;20381;-76
2022/10/22 07:31:34;;;;;;;;;;;;;;;12.19;100.00;100703.19;4975861;28;20125;-77
2022/10/22 07:33:59;;;;;;;;;;;;;;;12.23;100.00;100705.34;4975779;28;20004;-77
2022/10/22 07:36:24;;;;;;;208.80;52.00;;;;;;;12.22;100.00;100703.69;4958251;28;19910;-77
2022/10/22 07:38:54;;;;;;;203.60;52.83;;;;;;;12.24;100.00;100709.69;4973870;28;20487;-77
2022/10/22 07:41:20;;;;;;;294.90;58.20;;;;;;;12.28;100.00;100706.66;4977385;28;20066;-77
2022/10/22 07:43:45;;;;;;;280.70;51.43;;;;;;;12.33;100.00;100712.31;4958083;28;20125;-77
2022/10/22 07:46:10;;;;;;;151.83;46.43;;;;;;;12.45;100.00;100725.16;4957437;28;20089;-76
2022/10/22 07:48:36;;;;;;;137.77;44.43;;;;;;;12.50;100.00;100711.22;4974171;28;20035;-78
2022/10/22 07:51:03;;;;;;;244.32;49.78;;;;;;;12.38;100.00;100704.59;4976051;28;20031;-77
2022/10/22 07:53:28;;;;;;;;;;;;;;;12.43;100.00;100721.81;4956927;28;20030;-76
2022/10/22 07:55:53;;;;;;;;;;;;;;;12.48;100.00;100726.66;4945422;28;20429;-77
2022/10/22 07:58:20;;;;;;;184.37;49.10;;;;;;;12.48;100.00;100721.28;4957765;28;19913;-76
2022/10/22 08:00:46;;;;;;;172.40;48.95;;;;;;;12.45;100.00;100726.97;4947368;28;20031;-77
2022/10/22 08:03:12;;;;;;;;;;;;;;;12.60;100.00;100733.28;4976622;28;20041;-76
2022/10/22 08:05:38;;;;;;;;;;;;;;;12.54;100.00;100725.94;4972645;28;19922;-76
2022/10/22 08:08:04;;;;;;;161.90;45.85;;;;;;;12.56;100.00;100728.44;4956457;28;20339;-76
2022/10/22 08:10:30;;;;;;;156.68;48.03;;;;;;;12.47;100.00;100716.94;4973372;28;20121;-76
2022/10/22 08:12:56;;;;;;;133.73;45.53;;;;;;;12.52;100.00;100735.97;4944440;28;20102;-76
2022/10/22 08:15:23;;;;;;;113.30;39.70;;;;;;;12.52;100.00;100727.13;4974145;28;20027;-77
2022/10/22 08:17:49;;;;;;;152.68;46.53;;;;;;;12.49;100.00;100730.97;4949890;28;20094;-76
2022/10/22 08:20:14;;;;;;;105.93;41.17;;;;;;;12.62;100.00;100741.13;4957277;28;20456;-76
2022/10/22 08:22:40;;;;;;;114.90;42.77;;;;;;;12.60;100.00;100738.63;4972027;28;20035;-76
2022/10/22 08:25:05;;;;;;;122.40;42.20;;;;;;;12.58;100.00;100735.28;4955968;28;20392;-77
2022/10/22 08:27:30;;;;;;;115.40;43.85;;;;;;;12.71;100.00;100747.25;4955366;28;20057;-77
2022/10/22 08:29:56;;;;;;;118.97;41.77;;;;;;;12.57;100.00;100730.09;4960753;28;20077;-76
2022/10/22 08:32:21;;;;;;;104.93;41.67;;;;;;;12.58;100.00;100729.94;4976558;28;20037;-76
2022/10/22 08:34:46;;;;;;;97.80;42.00;;;;;;;12.64;100.00;100739.09;4971442;28;20034;-76
2022/10/22 08:37:13;;;;;;;116.70;40.70;;;;;;;12.57;100.00;100730.94;4973070;28;20036;-76
2022/10/22 08:39:39;;;;;;;124.82;43.47;;;;;;;12.54;100.00;100715.22;4969467;28;20405;-76
2022/10/22 08:42:24;;;;;;;100.45;41.58;;;;;;;12.72;100.00;100730.19;4956234;28;20035;-76
2022/10/22 08:45:23;;;;;;;110.03;40.55;;;;;;;12.72;100.00;100727.53;4953405;28;20697;-76
2022/10/22 08:48:09;;;;;;;94.25;39.08;;;;;;;12.63;100.00;100719.50;4969444;28;20038;-77
2022/10/22 08:50:42;;;;;;;83.75;36.90;;;;;;;12.69;100.00;100720.66;4974116;28;20034;-76
2022/10/22 08:53:18;;;;;;;100.95;39.67;;;;;;;12.70;100.00;100721.50;4973878;28;20300;-76
2022/10/22 08:55:45;;;;;;;101.13;41.45;;;;;;;12.71;100.00;100717.78;4969519;28;20031;-76
2022/10/22 08:58:21;;;;;;;;;;;;;;;12.77;100.00;100731.31;4956814;28;20061;-76
2022/10/22 09:00:57;;;;;;;99.15;37.22;;;;;;;12.48;100.00;100715.94;4970288;28;19964;-76
2022/10/22 09:03:37;;;;;;;80.10;34.95;;;;;;;12.63;100.00;100722.19;4956535;28;20511;-75
2022/10/22 09:06:20;;;;;;;83.03;37.42;;;;;;;12.71;100.00;100725.84;4968633;28;20034;-76
2022/10/22 09:08:46;;;;;;;91.28;36.60;;;;;;;12.55;100.00;100711.53;4969680;28;20121;-76
2022/10/22 09:11:11;;;;;;;91.03;39.00;;;;;;;12.64;100.00;100710.50;4956747;28;20228;-77
2022/10/22 09:13:38;;;;;;;96.97;39.67;;;;;;;12.59;100.00;100710.16;4971461;28;20049;-76
2022/10/22 09:16:16;;;;;;;97.90;41.83;;;;;;;12.56;100.00;100710.53;4972646;28;20126;-77
2022/10/22 09:19:11;;;;;;;83.72;36.20;;;;;;;12.71;100.00;100709.75;4969137;28;20471;-77
2022/10/22 09:21:42;;;;;;;66.30;27.20;;;;;;;12.74;100.00;100704.06;4965855;28;20047;-77
2022/10/22 09:24:44;;;;;;;79.35;34.78;;;;;;;12.70;100.00;100705.44;4973316;28;20035;-76
2022/10/22 09:27:13;;;;;;;83.57;36.00;;;;;;;12.59;100.00;100686.06;4912823;28;20109;-76
2022/10/22 09:29:39;;;;;;;90.13;37.35;;;;;;;12.53;100.00;100689.47;4957347;28;20033;-76
2022/10/22 09:32:05;;;;;;;85.53;37.75;;;;;;;12.52;100.00;100685.09;4955189;28;20137;-76
2022/10/22 09:34:31;;;;;;;78.70;37.00;;;;;;;12.70;100.00;100698.22;4972181;28;20634;-77
2022/10/22 09:36:59;;;;;;;98.78;40.65;;;;;;;12.76;100.00;100699.34;4959539;28;20125;-76
2022/10/22 09:39:27;;;;;;;84.97;36.55;;;;;;;12.72;100.00;100706.09;4955568;28;20110;-76
2022/10/22 09:41:52;;;;;;;88.82;38.67;;;;;;;12.81;100.00;100705.03;4943793;28;20081;-76
2022/10/22 09:44:18;;;;;;;77.77;35.63;;;;;;;13.00;100.00;100714.44;4956606;28;20038;-77
2022/10/22 09:46:44;;;;;;;88.97;37.50;;;;;;;13.00;100.00;100706.38;4970497;28;20034;-76
2022/10/22 09:49:16;;;;;;;87.30;37.17;;;;;;;12.99;100.00;100700.16;4956435;28;20030;-75
2022/10/22 09:51:57;;;;;;;69.28;34.72;;;;;;;13.27;100.00;100713.03;4969710;28;20084;-77
2022/10/22 09:54:23;;;;;;;80.00;35.25;;;;;;;13.37;100.00;100707.44;4947185;28;20571;-76
2022/10/22 09:57:02;;;;;;;75.53;34.20;;;;;;;13.44;100.00;100695.00;4954360;28;20043;-76
2022/10/22 09:59:35;;;;;;;65.80;32.75;;;;;;;13.45;100.00;100678.69;4972873;28;20027;-76
2022/10/22 10:02:23;;;;;;;59.67;31.13;;;;;;;13.74;100.00;100677.03;4972277;28;20041;-76
2022/10/22 10:04:53;;;;;;;61.97;30.95;;;;;;;13.75;100.00;100659.94;4969855;28;20081;-76
2022/10/22 10:07:22;;;;;;;63.65;31.13;;;;;;;13.73;100.00;100638.66;4972039;28;20034;-76
2022/10/22 10:09:48;;;;;;;60.92;31.17;;;;;;;13.81;100.00;100623.47;4970788;28;20101;-76
2022/10/22 10:12:37;;;;;;;;;;;;;;;14.13;100.00;100627.59;4977661;28;20030;-76
2022/10/22 10:15:28;;;;;;;53.70;28.00;;;;;;;14.27;100.00;100599.88;4975878;28;19921;-76
2022/10/22 10:18:17;;;;;;;60.75;30.45;;;;;;;14.06;100.00;100573.00;4974640;28;20351;-76
2022/10/22 10:20:45;;;;;;;58.72;28.25;;;;;;;14.26;100.00;100565.19;4972641;28;20038;-76
2022/10/22 10:23:23;;;;;;;49.22;27.20;;;;;;;14.96;100.00;100582.34;4976806;28;20464;-76
2022/10/22 10:25:54;;;;;;;48.50;26.98;;;;;;;15.20;100.00;100557.69;4945159;28;20142;-76
2022/10/22 10:29:07;;;;;;;48.72;26.48;;;;;;;15.27;100.00;100532.72;4949603;28;20039;-76
2022/10/22 10:32:01;;;;;;;41.05;25.27;;;;;;;15.50;100.00;100522.50;4970806;28;20046;-76
2022/10/22 10:34:49;;;;;;;41.60;25.40;;;;;;;15.56;100.00;100518.16;4976445;28;20080;-75
2022/10/22 10:37:27;;;;;;;38.88;23.50;;;;;;;15.49;100.00;100520.81;4975909;28;20038;-76
2022/10/22 10:40:32;;;;;;;36.30;22.75;;;;;;;16.04;100.00;100537.00;4951785;28;20424;-76
2022/10/22 10:43:15;;;;;;;43.35;24.35;;;;;;;16.00;100.00;100523.09;4932600;28;20030;-76
2022/10/22 10:46:10;;;;;;;42.05;21.58;;;;;;;16.44;100.00;100524.41;4973588;28;20034;-76
2022/10/22 10:48:45;;;;;;;35.83;21.58;;;;;;;16.34;100.00;100501.59;4961862;28;20046;-76
2022/10/22 10:51:30;;;;;;;41.75;23.27;;;;;;;15.84;100.00;100496.53;4976412;28;20105;-76
2022/10/22 10:54:10;;;;;;;42.13;23.63;;;;;;;16.09;100.00;100509.44;4974220;28;20030;-75
2022/10/22 10:56:43;;;;;;;38.25;23.77;;;;;;;15.71;100.00;100507.25;4956282;28;20473;-75
2022/10/22 10:59:24;;;;;;;35.05;23.75;;;;;;;15.42;100.00;100525.31;4975784;28;20212;-75
2022/10/22 11:02:34;;;;;;;40.55;23.45;;;;;;;15.16;100.00;100542.16;4972948;28;20038;-76
2022/10/22 11:05:15;;;;;;;39.05;22.95;;;;;;;15.34;100.00;100571.25;4966131;28;20034;-75
2022/10/22 11:07:52;;;;;;;38.03;24.38;;;;;;;15.89;100.00;100587.47;4972254;28;20110;-76
2022/10/22 11:10:33;;;;;;;37.65;22.23;;;;;;;16.38;100.00;100581.78;4976061;28;20041;-75
2022/10/22 11:13:22;;;;;;;36.30;22.27;;;;;;;16.71;100.00;100572.91;4972079;28;20050;-75
2022/10/22 11:15:55;;;;;;;36.78;21.95;;;;;;;17.48;100.00;100547.09;4971874;28;20042;-75